sensor_id;sensor_type;location;lat;lon;timestamp;temperature;humidity
47540;DHT22;33280;52.152;21.052;2023-07-31T06:20:15;18.60;99.90
47540;DHT22;33280;52.152;21.052;2023-07-31T06:22:43;18.60;99.90
47540;DHT22;33280;52.152;21.052;2023-07-31T06:25:10;18.50;99.90
47540;DHT22;33280;52.152;21.052;2023-07-31T06:27:44;18.40;99.90
47540;DHT22;33280;52.152;21.052;2023-07-31T06:30:17;18.30;99.90
47540;DHT22;33280;52.152;21.052;2023-07-31T06:32:46;18.20;99.90
47540;DHT22;33280;52.152;21.052;2023-07-31T06:35:15;18.10;99.90
47540;DHT22;33280;52.152;21.052;2023-07-31T06:37:42;18.10;99.90
47540;DHT22;33280;52.152;21.052;2023-07-31T06:40:11;18.20;99.90
47540;DHT22;33280;52.152;21.052;2023-07-31T06:42:38;18.20;99.90
47540;DHT22;33280;52.152;21.052;2023-07-31T06:45:05;18.10;99.90
47540;DHT22;33280;52.152;21.052;2023-07-31T06:47:33;18.20;99.90
47540;DHT22;33280;52.152;21.052;2023-07-31T06:50:00;18.20;99.90
47540;DHT22;33280;52.152;21.052;2023-07-31T06:52:27;18.20;99.90
47540;DHT22;33280;52.152;21.052;2023-07-31T06:57:30;18.40;99.90
47540;DHT22;33280;52.152;21.052;2023-07-31T06:59:57;18.40;99.90
47540;DHT22;33280;52.152;21.052;2023-07-31T07:02:24;18.50;99.90
47540;DHT22;33280;52.152;21.052;2023-07-31T07:04:51;18.50;99.90
47540;DHT22;33280;52.152;21.052;2023-07-31T07:07:19;18.50;99.90
47540;DHT22;33280;52.152;21.052;2023-07-31T07:09:52;18.40;99.90
47540;DHT22;33280;52.152;21.052;2023-07-31T07:12:19;18.50;99.90
47540;DHT22;33280;52.152;21.052;2023-07-31T07:14:47;18.60;99.90
47540;DHT22;33280;52.152;21.052;2023-07-31T07:17:20;18.60;99.90
47540;DHT22;33280;52.152;21.052;2023-07-31T07:19:48;18.60;99.90
47540;DHT22;33280;52.152;21.052;2023-07-31T07:22:15;18.90;99.90
47540;DHT22;33280;52.152;21.052;2023-07-31T07:24:44;18.80;99.90
47540;DHT22;33280;52.152;21.052;2023-07-31T07:27:17;18.80;99.90
47540;DHT22;33280;52.152;21.052;2023-07-31T07:29:50;19.10;99.90
47540;DHT22;33280;52.152;21.052;2023-07-31T07:32:24;19.30;99.90
47540;DHT22;33280;52.152;21.052;2023-07-31T07:34:53;19.40;99.90
47540;DHT22;33280;52.152;21.052;2023-07-31T07:37:21;19.40;99.90
47540;DHT22;33280;52.152;21.052;2023-07-31T07:40:02;19.10;99.90
47540;DHT22;33280;52.152;21.052;2023-07-31T07:42:33;19.30;99.90
47540;DHT22;33280;52.152;21.052;2023-07-31T07:45:01;19.50;99.90
47540;DHT22;33280;52.152;21.052;2023-07-31T07:47:40;19.90;99.90
47540;DHT22;33280;52.152;21.052;2023-07-31T07:50:15;20.30;99.90
47540;DHT22;33280;52.152;21.052;2023-07-31T07:52:48;20.80;99.90
47540;DHT22;33280;52.152;21.052;2023-07-31T07:55:21;20.60;99.90
47540;DHT22;33280;52.152;21.052;2023-07-31T07:57:53;20.80;99.90
47540;DHT22;33280;52.152;21.052;2023-07-31T08:00:24;20.80;99.90
47540;DHT22;33280;52.152;21.052;2023-07-31T08:02:57;20.60;99.90
47540;DHT22;33280;52.152;21.052;2023-07-31T08:05:27;20.80;99.90
47540;DHT22;33280;52.152;21.052;2023-07-31T08:07:59;20.90;99.90
47540;DHT22;33280;52.152;21.052;2023-07-31T08:10:35;21.00;99.90
47540;DHT22;33280;52.152;21.052;2023-07-31T08:13:25;20.80;99.90
47540;DHT22;33280;52.152;21.052;2023-07-31T08:16:00;20.80;99.90
47540;DHT22;33280;52.152;21.052;2023-07-31T08:18:33;20.90;99.90
47540;DHT22;33280;52.152;21.052;2023-07-31T08:21:18;21.10;99.90
47540;DHT22;33280;52.152;21.052;2023-07-31T08:23:57;21.50;99.90
47540;DHT22;33280;52.152;21.052;2023-07-31T08:26:45;22.20;99.90
47540;DHT22;33280;52.152;21.052;2023-07-31T08:29:18;22.30;99.90
47540;DHT22;33280;52.152;21.052;2023-07-31T08:31:57;23.10;99.90
47540;DHT22;33280;52.152;21.052;2023-07-31T08:34:34;23.50;99.90
47540;DHT22;33280;52.152;21.052;2023-07-31T08:37:08;24.00;99.90
47540;DHT22;33280;52.152;21.052;2023-07-31T08:39:48;24.50;99.90
47540;DHT22;33280;52.152;21.052;2023-07-31T08:42:18;25.00;99.90
47540;DHT22;33280;52.152;21.052;2023-07-31T08:44:56;25.20;99.90
47540;DHT22;33280;52.152;21.052;2023-07-31T08:47:33;25.50;99.90
47540;DHT22;33280;52.152;21.052;2023-07-31T08:50:13;25.80;99.90
47540;DHT22;33280;52.152;21.052;2023-07-31T08:53:11;25.70;99.90
47540;DHT22;33280;52.152;21.052;2023-07-31T08:56:02;25.80;99.90
47540;DHT22;33280;52.152;21.052;2023-07-31T08:58:42;26.20;99.90
47540;DHT22;33280;52.152;21.052;2023-07-31T09:01:23;26.20;99.90
47540;DHT22;33280;52.152;21.052;2023-07-31T09:04:04;25.20;99.90
47540;DHT22;33280;52.152;21.052;2023-07-31T09:06:44;24.70;99.90
47540;DHT22;33280;52.152;21.052;2023-07-31T09:10:08;24.40;99.90
47540;DHT22;33280;52.152;21.052;2023-07-31T09:13:07;24.60;99.90
47540;DHT22;33280;52.152;21.052;2023-07-31T09:16:07;25.00;99.90
47540;DHT22;33280;52.152;21.052;2023-07-31T09:19:04;25.30;99.90
47540;DHT22;33280;52.152;21.052;2023-07-31T09:21:57;25.30;99.90
47540;DHT22;33280;52.152;21.052;2023-07-31T09:25:00;25.40;99.90
47540;DHT22;33280;52.152;21.052;2023-07-31T09:31:44;25.30;99.90
47540;DHT22;33280;52.152;21.052;2023-07-31T09:34:56;25.20;99.90
47540;DHT22;33280;52.152;21.052;2023-07-31T09:38:05;25.40;99.90
47540;DHT22;33280;52.152;21.052;2023-07-31T09:47:58;26.40;99.90
47540;DHT22;33280;52.152;21.052;2023-07-31T09:50:55;26.40;99.90
47540;DHT22;33280;52.152;21.052;2023-07-31T09:53:34;26.50;99.90
47540;DHT22;33280;52.152;21.052;2023-07-31T09:59:26;26.90;99.90
47540;DHT22;33280;52.152;21.052;2023-07-31T10:02:09;27.30;99.90
47540;DHT22;33280;52.152;21.052;2023-07-31T10:05:06;27.60;99.90
47540;DHT22;33280;52.152;21.052;2023-07-31T10:07:49;27.50;99.90
47540;DHT22;33280;52.152;21.052;2023-07-31T10:10:28;27.40;99.90
47540;DHT22;33280;52.152;21.052;2023-07-31T10:13:26;27.00;99.90
47540;DHT22;33280;52.152;21.052;2023-07-31T10:16:16;26.60;99.90
47540;DHT22;33280;52.152;21.052;2023-07-31T10:19:01;26.70;99.90
47540;DHT22;33280;52.152;21.052;2023-07-31T10:21:59;26.80;99.90
47540;DHT22;33280;52.152;21.052;2023-07-31T10:25:10;27.10;99.90
47540;DHT22;33280;52.152;21.052;2023-07-31T10:28:10;27.00;99.90
47540;DHT22;33280;52.152;21.052;2023-07-31T10:31:14;26.50;99.90
47540;DHT22;33280;52.152;21.052;2023-07-31T10:34:09;26.40;99.90
47540;DHT22;33280;52.152;21.052;2023-07-31T10:37:27;25.90;99.90
47540;DHT22;33280;52.152;21.052;2023-07-31T10:40:09;26.40;99.90
47540;DHT22;33280;52.152;21.052;2023-07-31T10:43:26;26.90;99.90
47540;DHT22;33280;52.152;21.052;2023-07-31T10:49:14;28.10;99.90
47540;DHT22;33280;52.152;21.052;2023-07-31T10:52:25;28.20;98.70
47540;DHT22;33280;52.152;21.052;2023-07-31T10:56:06;27.40;98.20
47540;DHT22;33280;52.152;21.052;2023-07-31T10:59:03;26.90;99.20
47540;DHT22;33280;52.152;21.052;2023-07-31T11:02:28;27.20;98.50
47540;DHT22;33280;52.152;21.052;2023-07-31T11:05:15;28.00;98.20
47540;DHT22;33280;52.152;21.052;2023-07-31T11:08:53;28.30;97.70
47540;DHT22;33280;52.152;21.052;2023-07-31T11:11:40;28.50;96.10
47540;DHT22;33280;52.152;21.052;2023-07-31T11:17:59;29.10;94.60
47540;DHT22;33280;52.152;21.052;2023-07-31T11:20:43;29.10;92.70
47540;DHT22;33280;52.152;21.052;2023-07-31T11:23:38;28.90;93.10
47540;DHT22;33280;52.152;21.052;2023-07-31T11:26:57;28.30;94.00
47540;DHT22;33280;52.152;21.052;2023-07-31T11:29:43;28.40;92.90
47540;DHT22;33280;52.152;21.052;2023-07-31T11:32:28;28.60;93.10
47540;DHT22;33280;52.152;21.052;2023-07-31T11:35:12;28.80;92.60
47540;DHT22;33280;52.152;21.052;2023-07-31T11:38:12;27.60;93.20
47540;DHT22;33280;52.152;21.052;2023-07-31T11:41:25;27.70;94.30
47540;DHT22;33280;52.152;21.052;2023-07-31T11:44:06;28.00;91.70
47540;DHT22;33280;52.152;21.052;2023-07-31T11:46:59;27.60;91.40
47540;DHT22;33280;52.152;21.052;2023-07-31T11:49:36;27.90;91.50
47540;DHT22;33280;52.152;21.052;2023-07-31T11:52:10;27.70;92.30
47540;DHT22;33280;52.152;21.052;2023-07-31T11:54:39;27.60;91.20
47540;DHT22;33280;52.152;21.052;2023-07-31T11:57:10;27.80;91.00
47540;DHT22;33280;52.152;21.052;2023-07-31T11:59:38;27.00;91.40
47540;DHT22;33280;52.152;21.052;2023-07-31T12:02:25;26.80;91.50
47540;DHT22;33280;52.152;21.052;2023-07-31T12:05:02;26.10;92.00
47540;DHT22;33280;52.152;21.052;2023-07-31T12:07:50;26.10;92.20
47540;DHT22;33280;52.152;21.052;2023-07-31T12:11:01;26.10;92.50
47540;DHT22;33280;52.152;21.052;2023-07-31T12:13:49;25.70;93.30
47540;DHT22;33280;52.152;21.052;2023-07-31T12:16:16;25.90;93.40
47540;DHT22;33280;52.152;21.052;2023-07-31T12:18:49;25.70;93.10
47540;DHT22;33280;52.152;21.052;2023-07-31T12:21:34;25.50;92.70
47540;DHT22;33280;52.152;21.052;2023-07-31T12:24:11;25.00;93.00
47540;DHT22;33280;52.152;21.052;2023-07-31T12:26:49;24.80;94.20
47540;DHT22;33280;52.152;21.052;2023-07-31T12:29:19;25.20;93.90
47540;DHT22;33280;52.152;21.052;2023-07-31T12:31:51;25.40;93.50
47540;DHT22;33280;52.152;21.052;2023-07-31T12:34:22;25.20;93.40
47540;DHT22;33280;52.152;21.052;2023-07-31T12:36:52;25.40;94.00
47540;DHT22;33280;52.152;21.052;2023-07-31T12:39:27;25.50;93.70
47540;DHT22;33280;52.152;21.052;2023-07-31T12:41:53;25.60;93.10
47540;DHT22;33280;52.152;21.052;2023-07-31T12:44:20;25.60;93.30
47540;DHT22;33280;52.152;21.052;2023-07-31T12:46:51;25.80;93.00
47540;DHT22;33280;52.152;21.052;2023-07-31T12:49:24;25.50;92.80
47540;DHT22;33280;52.152;21.052;2023-07-31T12:51:58;25.20;92.50
47540;DHT22;33280;52.152;21.052;2023-07-31T12:54:25;25.10;93.20
47540;DHT22;33280;52.152;21.052;2023-07-31T12:56:55;25.20;92.90
47540;DHT22;33280;52.152;21.052;2023-07-31T12:59:27;25.10;93.00
47540;DHT22;33280;52.152;21.052;2023-07-31T13:02:00;25.40;93.50
47540;DHT22;33280;52.152;21.052;2023-07-31T13:04:38;25.70;93.10
47540;DHT22;33280;52.152;21.052;2023-07-31T13:07:07;25.70;92.90
47540;DHT22;33280;52.152;21.052;2023-07-31T13:09:49;25.60;92.40
47540;DHT22;33280;52.152;21.052;2023-07-31T13:12:21;25.70;92.50
47540;DHT22;33280;52.152;21.052;2023-07-31T13:14:48;26.10;92.70
47540;DHT22;33280;52.152;21.052;2023-07-31T13:17:19;26.10;91.90
47540;DHT22;33280;52.152;21.052;2023-07-31T13:19:53;25.60;91.90
47540;DHT22;33280;52.152;21.052;2023-07-31T13:22:26;25.80;92.40
47540;DHT22;33280;52.152;21.052;2023-07-31T13:25:01;25.90;91.80
47540;DHT22;33280;52.152;21.052;2023-07-31T13:27:28;25.70;92.40
47540;DHT22;33280;52.152;21.052;2023-07-31T13:30:07;26.20;92.20
47540;DHT22;33280;52.152;21.052;2023-07-31T13:32:45;26.70;90.90
47540;DHT22;33280;52.152;21.052;2023-07-31T13:35:21;26.80;90.60
47540;DHT22;33280;52.152;21.052;2023-07-31T13:37:57;27.30;90.80
47540;DHT22;33280;52.152;21.052;2023-07-31T13:40:24;27.40;90.00
47540;DHT22;33280;52.152;21.052;2023-07-31T13:42:51;27.50;90.20
47540;DHT22;33280;52.152;21.052;2023-07-31T13:45:30;28.20;90.20
47540;DHT22;33280;52.152;21.052;2023-07-31T13:47:57;28.60;89.90
47540;DHT22;33280;52.152;21.052;2023-07-31T13:50:24;28.90;88.40
47540;DHT22;33280;52.152;21.052;2023-07-31T13:52:52;28.80;85.80
47540;DHT22;33280;52.152;21.052;2023-07-31T13:55:22;28.40;86.70
47540;DHT22;33280;52.152;21.052;2023-07-31T13:57:50;28.90;87.20
47540;DHT22;33280;52.152;21.052;2023-07-31T14:00:17;28.90;86.00
47540;DHT22;33280;52.152;21.052;2023-07-31T14:02:44;28.90;86.30
47540;DHT22;33280;52.152;21.052;2023-07-31T14:05:11;28.90;86.00
47540;DHT22;33280;52.152;21.052;2023-07-31T14:07:39;28.70;86.00
47540;DHT22;33280;52.152;21.052;2023-07-31T14:10:18;28.40;87.60
47540;DHT22;33280;52.152;21.052;2023-07-31T14:12:45;27.50;87.70
47540;DHT22;33280;52.152;21.052;2023-07-31T14:15:15;27.10;89.50
47540;DHT22;33280;52.152;21.052;2023-07-31T14:17:47;26.90;90.10
47540;DHT22;33280;52.152;21.052;2023-07-31T14:20:15;26.70;90.30
47540;DHT22;33280;52.152;21.052;2023-07-31T14:22:51;26.50;90.90
47540;DHT22;33280;52.152;21.052;2023-07-31T14:25:27;26.50;91.20
47540;DHT22;33280;52.152;21.052;2023-07-31T14:27:58;26.60;91.30
47540;DHT22;33280;52.152;21.052;2023-07-31T14:30:40;26.30;91.20
47540;DHT22;33280;52.152;21.052;2023-07-31T14:33:11;26.00;91.10
47540;DHT22;33280;52.152;21.052;2023-07-31T14:35:38;25.60;91.80
47540;DHT22;33280;52.152;21.052;2023-07-31T14:38:05;25.40;92.60
47540;DHT22;33280;52.152;21.052;2023-07-31T14:40:32;25.40;92.50
47540;DHT22;33280;52.152;21.052;2023-07-31T14:42:59;25.50;91.80
47540;DHT22;33280;52.152;21.052;2023-07-31T14:45:26;25.50;91.80
47540;DHT22;33280;52.152;21.052;2023-07-31T14:47:53;25.40;91.60
47540;DHT22;33280;52.152;21.052;2023-07-31T14:50:20;25.80;91.50
47540;DHT22;33280;52.152;21.052;2023-07-31T14:52:50;26.00;90.90
47540;DHT22;33280;52.152;21.052;2023-07-31T14:55:18;26.00;90.50
47540;DHT22;33280;52.152;21.052;2023-07-31T14:57:45;25.80;90.90
47540;DHT22;33280;52.152;21.052;2023-07-31T15:00:14;25.80;90.30
47540;DHT22;33280;52.152;21.052;2023-07-31T15:02:41;25.60;90.60
47540;DHT22;33280;52.152;21.052;2023-07-31T15:05:09;25.40;90.90
47540;DHT22;33280;52.152;21.052;2023-07-31T15:07:38;25.40;91.60
47540;DHT22;33280;52.152;21.052;2023-07-31T15:10:08;25.40;91.30
47540;DHT22;33280;52.152;21.052;2023-07-31T15:12:35;25.20;91.50
47540;DHT22;33280;52.152;21.052;2023-07-31T15:15:05;25.00;92.00
47540;DHT22;33280;52.152;21.052;2023-07-31T15:17:37;24.90;91.90
47540;DHT22;33280;52.152;21.052;2023-07-31T15:20:05;24.80;92.30
47540;DHT22;33280;52.152;21.052;2023-07-31T15:22:33;24.50;92.70
47540;DHT22;33280;52.152;21.052;2023-07-31T15:25:00;24.60;92.90
47540;DHT22;33280;52.152;21.052;2023-07-31T15:27:27;24.90;92.80
47540;DHT22;33280;52.152;21.052;2023-07-31T15:29:54;25.60;92.10
47540;DHT22;33280;52.152;21.052;2023-07-31T15:32:22;26.20;91.70
47540;DHT22;33280;52.152;21.052;2023-07-31T15:34:50;26.20;91.50
47540;DHT22;33280;52.152;21.052;2023-07-31T15:37:17;26.10;90.60
47540;DHT22;33280;52.152;21.052;2023-07-31T16:28:15;24.00;95.30
47540;DHT22;33280;52.152;21.052;2023-07-31T17:09:57;23.30;97.90
47540;DHT22;33280;52.152;21.052;2023-07-31T17:12:28;23.40;98.10
47540;DHT22;33280;52.152;21.052;2023-07-31T17:14:55;23.50;98.40
47540;DHT22;33280;52.152;21.052;2023-07-31T17:17:22;23.50;98.70
47540;DHT22;33280;52.152;21.052;2023-07-31T17:19:50;23.50;98.70
47540;DHT22;33280;52.152;21.052;2023-07-31T17:22:18;23.50;99.00
47540;DHT22;33280;52.152;21.052;2023-07-31T17:24:45;23.40;98.90
47540;DHT22;33280;52.152;21.052;2023-07-31T17:27:12;23.40;99.10
47540;DHT22;33280;52.152;21.052;2023-07-31T17:29:39;23.30;99.10
47540;DHT22;33280;52.152;21.052;2023-07-31T17:32:07;23.20;99.60
47540;DHT22;33280;52.152;21.052;2023-07-31T17:34:34;23.10;99.70
